Charlotte, NC (28242)

7:06 AM EDT on July 31, 2015 (GMT -0400)
Dilworth-Latta Park | | Change Station
CLOSE
Current Station
Personal Weather Station
Location: Charlotte, NC
Elevation: 715 ft
Nearby Weather Stations

Elev 715 ft 35.22 °N, 80.86 °W | Updated 19 seconds ago

Partly Cloudy
Partly Cloudy
77.6 °F
Feels Like 79 °F
N
0.0
Wind Variable Wind from NNE
Gusts 1.0 mph

Today
High -- | Low -- °F
--% Chance of Precip.
Yesterday
High -- | Low -- °F
Precip. -- in
6:31 AM 8:27 PM
Full, 100% visible
Pressure 29.97 in
Visibility 10.0 miles
Clouds Mostly Cloudy 6500 ft
Mostly Cloudy 25000 ft
Heat Index 79 °F
Dew Point 63 °F
Humidity 61%
Rainfall 0.00 in
Snow Depth Not available.
UV 0 out of 12
Pollen 4.40 out of 12
Air Quality Not available.
Flu Activity Not available.
METAR KCLT 311052Z 02007KT 10SM BKN065 BKN250 24/16 A3000 RMK AO2 SLP148 T02390156

More Conditions Fewer Conditions

Pressure 29.97 in
Visibility 10.0 miles
Clouds Mostly Cloudy 6500 ft
Mostly Cloudy 25000 ft
Heat Index 79 °F
Dew Point 63 °F
Humidity 61%
Rainfall 0.00 in
Snow Depth Not available.
UV 0 out of 12
Pollen 4.40 out of 12
Air Quality Not available.
Flu Activity Not available.
METAR KCLT 311052Z 02007KT 10SM BKN065 BKN250 24/16 A3000 RMK AO2 SLP148 T02390156

More Conditions Fewer Conditions

10-Day Weather Forecast

×

Almanac

Astronomy

Jul. 31, 2015 Rise Set
Actual Time
Civil Twilight
Nautical Twilight
Astronomical Twilight
Moon
Length of Visible Light
Length of Day
Tomorrow will be .
, % of the Moon is Illuminated

Today's Extremes

State Highs State Lows

Community

WunderPhotos

Upload Photos

1,842,643 photos uploaded!

WunderBlogs® & News

Nearby

Air Quality

  Air Quality AQ Index Pollutant
Not available.

Snow Depth

Station Depth Elevation

Earthquake Activity

City Distance Mag. Time & Date
Minimum magnitude displayed is 2.5.

Coastal Water Temperatures

Place Temperature

Stations

Nearby Weather Stations

Station Location Temp. Windchill Dew Point Humidity Wind Precip. Elev Updated Type